Terminal Aerodrome Forecast
Issued by NWS

Home | Current Version | Previous Version | Text Only | Print | Product List | Glossary On
Versions: 1 2 3 4 5 6 7 8 9 10 11 12 13 14 15 16 17 18 19 20 21 22 23
712
FTUS44 KOUN 081120
TAFCSM
TAF
KCSM 081120Z 0812/0912 31012KT P6SM SKC
     FM081500 33021G29KT P6SM SKC
     FM081700 33027G37KT P6SM FEW250
     FM090000 33013G21KT P6SM BKN250
     FM090100 33011KT P6SM BKN250=

USA.gov is the U.S. government's official web portal to all federal, state and local government web resources and services.